createdAt,value
2019-05-13T00:01:35.295Z,13.40
2019-05-13T00:04:04.775Z,13.43
2019-05-13T00:06:34.511Z,13.39
2019-05-13T00:09:06.736Z,13.32
2019-05-13T00:11:37.336Z,13.37
2019-05-13T00:14:06.815Z,13.28
2019-05-13T00:16:37.458Z,13.25
2019-05-13T00:19:08.493Z,13.26
2019-05-13T00:21:37.286Z,13.25
2019-05-13T00:24:09.454Z,13.20
2019-05-13T00:26:38.412Z,13.17
2019-05-13T00:29:07.778Z,13.13
2019-05-13T00:31:38.295Z,13.08
2019-05-13T00:34:10.673Z,13.10
2019-05-13T00:36:40.080Z,13.07
2019-05-13T00:39:10.030Z,13.03
2019-05-13T00:41:40.443Z,13.05
2019-05-13T00:44:11.043Z,13.05
2019-05-13T00:46:40.548Z,13.03
2019-05-13T00:49:13.282Z,13.00
2019-05-13T00:51:44.514Z,12.97
2019-05-13T00:54:15.385Z,12.95
2019-05-13T00:56:45.906Z,13.03
2019-05-13T00:59:15.202Z,12.99
2019-05-13T01:01:45.559Z,12.91
2019-05-13T01:04:16.168Z,12.87
2019-05-13T01:06:46.798Z,12.93
2019-05-13T01:09:16.185Z,12.93
2019-05-13T01:11:46.570Z,12.85
2019-05-13T01:14:18.877Z,12.99
2019-05-13T01:16:49.238Z,12.95
2019-05-13T01:19:18.610Z,12.96
2019-05-13T01:21:54.061Z,12.99
2019-05-13T01:24:24.357Z,12.91
2019-05-13T01:26:55.248Z,12.89
2019-05-13T01:29:25.766Z,12.84
2019-05-13T01:31:56.164Z,12.83
2019-05-13T01:34:25.524Z,12.76
2019-05-13T01:36:55.874Z,12.68
2019-05-13T01:39:28.320Z,12.58
2019-05-13T01:41:57.808Z,12.65
2019-05-13T01:44:28.201Z,12.67
2019-05-13T01:46:58.909Z,12.60
2019-05-13T01:49:29.778Z,12.67
2019-05-13T01:52:03.797Z,12.59
2019-05-13T01:54:34.219Z,12.56
2019-05-13T01:57:04.472Z,12.63
2019-05-13T01:59:36.783Z,12.58
2019-05-13T02:02:06.782Z,12.45
2019-05-13T02:04:37.179Z,12.44
2019-05-13T02:07:06.545Z,12.29
2019-05-13T02:09:37.260Z,12.28
2019-05-13T02:12:06.740Z,12.23
2019-05-13T02:14:38.801Z,12.24
2019-05-13T02:17:08.210Z,12.16
2019-05-13T02:19:38.776Z,12.14
2019-05-13T02:22:09.182Z,12.22
2019-05-13T02:24:41.572Z,12.11
2019-05-13T02:27:10.991Z,12.14
2019-05-13T02:29:43.511Z,12.08
2019-05-13T02:32:13.981Z,12.08
2019-05-13T02:34:44.113Z,12.00
2019-05-13T02:37:15.212Z,12.04
2019-05-13T02:39:45.690Z,12.01
2019-05-13T02:42:17.238Z,12.06
2019-05-13T02:44:52.293Z,12.10
2019-05-13T02:47:22.608Z,12.02
2019-05-13T02:49:53.562Z,12.03
2019-05-13T02:52:24.137Z,11.88
2019-05-13T02:54:53.553Z,11.87
2019-05-13T02:57:24.178Z,11.89
2019-05-13T02:59:53.526Z,11.78
2019-05-13T03:02:22.548Z,11.74
2019-05-13T03:04:55.063Z,11.79
2019-05-13T03:07:25.479Z,11.73
2019-05-13T03:09:57.552Z,11.72
2019-05-13T03:12:26.917Z,11.75
2019-05-13T03:14:56.593Z,11.71
2019-05-13T03:17:36.528Z,11.82
2019-05-13T03:20:11.931Z,11.69
2019-05-13T03:22:38.594Z,11.70
2019-05-13T03:25:12.891Z,11.69
2019-05-13T03:27:43.072Z,11.73
2019-05-13T03:30:16.479Z,11.69
2019-05-13T03:32:53.042Z,11.52
2019-05-13T03:35:16.954Z,11.60
2019-05-13T03:37:46.637Z,11.62
2019-05-13T03:40:18.379Z,11.55
2019-05-13T03:42:53.451Z,11.50
2019-05-13T03:45:26.504Z,11.63
2019-05-13T03:47:56.955Z,11.68
2019-05-13T03:50:30.526Z,11.73
2019-05-13T03:53:02.663Z,11.76
2019-05-13T03:55:32.801Z,11.84
2019-05-13T03:58:02.967Z,11.87
2019-05-13T04:00:33.750Z,11.77
2019-05-13T04:03:06.240Z,11.81
2019-05-13T04:05:36.035Z,11.87
2019-05-13T04:08:06.542Z,11.93
2019-05-13T04:10:35.108Z,11.98
2019-05-13T04:13:04.196Z,11.88
2019-05-13T04:15:35.052Z,11.95
2019-05-13T04:18:04.600Z,12.07
2019-05-13T04:20:34.002Z,12.07
2019-05-13T04:23:03.529Z,12.17
2019-05-13T04:25:33.833Z,12.18
2019-05-13T04:28:04.347Z,12.31
2019-05-13T04:30:34.893Z,12.50
2019-05-13T04:33:05.365Z,12.67
2019-05-13T04:35:34.975Z,12.90
2019-05-13T04:38:09.011Z,13.08
2019-05-13T04:40:36.579Z,13.33
2019-05-13T04:43:06.982Z,13.38
2019-05-13T04:45:36.371Z,13.52
2019-05-13T04:48:06.959Z,13.33
2019-05-13T04:50:36.445Z,13.24
2019-05-13T04:53:07.756Z,13.43
2019-05-13T04:55:38.294Z,14.39
2019-05-13T04:58:08.792Z,15.48
2019-05-13T05:01:14.111Z,15.95
2019-05-13T05:03:53.932Z,16.59
2019-05-13T05:06:35.374Z,17.46
2019-05-13T05:09:14.772Z,17.20
2019-05-13T05:12:23.217Z,16.15
2019-05-13T05:15:23.201Z,16.51
2019-05-13T05:18:07.547Z,16.67
2019-05-13T05:21:12.025Z,18.15
2019-05-13T05:23:54.626Z,20.71
2019-05-13T05:26:43.321Z,22.00
2019-05-13T05:29:25.216Z,23.26
2019-05-13T05:32:28.218Z,22.72
2019-05-13T05:35:17.965Z,25.83
2019-05-13T05:38:25.252Z,28.06
2019-05-13T05:40:53.203Z,27.10
2019-05-13T05:43:25.192Z,25.87
2019-05-13T05:45:56.276Z,25.44
2019-05-13T05:48:26.762Z,26.92
2019-05-13T05:51:01.982Z,28.02
2019-05-13T05:53:32.026Z,28.11
2019-05-13T05:56:06.346Z,29.32
2019-05-13T05:58:35.914Z,29.69
2019-05-13T06:01:05.486Z,30.35
2019-05-13T06:03:37.686Z,29.70
2019-05-13T06:06:08.782Z,27.28
2019-05-13T06:08:38.333Z,25.36
2019-05-13T06:11:08.828Z,23.58
2019-05-13T06:13:43.100Z,24.24
2019-05-13T06:16:14.139Z,24.06
2019-05-13T06:18:44.590Z,25.43
2019-05-13T06:21:15.417Z,25.39
2019-05-13T06:23:45.918Z,25.90
2019-05-13T06:26:15.344Z,28.35
2019-05-13T06:28:47.024Z,30.17
2019-05-13T06:31:17.864Z,32.36
2019-05-13T06:33:48.232Z,28.12
2019-05-13T06:36:22.054Z,26.55
2019-05-13T06:38:51.512Z,29.30
2019-05-13T06:41:21.940Z,33.05
2019-05-13T06:43:54.022Z,33.82
2019-05-13T06:46:24.533Z,37.16
2019-05-13T06:48:53.938Z,39.37
2019-05-13T06:51:25.559Z,39.01
2019-05-13T06:53:57.943Z,39.75
2019-05-13T06:56:27.362Z,41.96
2019-05-13T06:58:58.021Z,41.40
2019-05-13T07:01:28.459Z,42.52
2019-05-13T07:03:58.807Z,42.21
2019-05-13T07:06:32.087Z,41.39
2019-05-13T07:09:01.470Z,43.02
2019-05-13T07:11:31.589Z,43.20
2019-05-13T07:14:02.555Z,44.88
2019-05-13T07:16:33.417Z,44.43
2019-05-13T07:19:05.438Z,44.95
2019-05-13T07:21:36.038Z,44.18
2019-05-13T07:24:07.988Z,45.40
2019-05-13T07:26:42.022Z,44.90
2019-05-13T07:29:13.395Z,46.00
2019-05-13T07:31:42.616Z,47.27
2019-05-13T07:34:13.259Z,43.25
2019-05-13T07:36:43.961Z,45.86
2019-05-13T07:39:13.320Z,45.37
2019-05-13T07:41:43.733Z,45.66
2019-05-13T07:44:14.105Z,44.62
2019-05-13T07:46:44.541Z,45.64
2019-05-13T07:49:13.871Z,46.64
2019-05-13T07:51:46.047Z,47.92
2019-05-13T07:54:18.543Z,47.30
2019-05-13T07:56:49.163Z,46.82
2019-05-13T07:59:20.578Z,46.11
2019-05-13T08:01:52.321Z,47.01
2019-05-13T08:04:26.092Z,48.04
2019-05-13T08:06:52.915Z,47.54
2019-05-13T08:09:24.662Z,46.67
2019-05-13T08:12:04.702Z,46.92
2019-05-13T08:14:28.049Z,44.97
2019-05-13T08:16:57.455Z,44.56
2019-05-13T08:19:29.453Z,43.72
2019-05-13T08:22:02.137Z,45.07
2019-05-13T08:24:34.057Z,46.50
2019-05-13T08:27:03.564Z,46.90
2019-05-13T08:29:34.060Z,47.57
2019-05-13T08:32:03.440Z,46.94
2019-05-13T08:34:33.914Z,43.85
2019-05-13T08:37:03.511Z,42.93
2019-05-13T08:39:38.090Z,41.47
2019-05-13T08:42:15.226Z,43.63
2019-05-13T08:44:37.902Z,44.90
2019-05-13T08:47:07.456Z,43.79
2019-05-13T08:49:38.047Z,41.43
2019-05-13T08:52:12.907Z,37.26
2019-05-13T08:54:42.273Z,41.26
2019-05-13T08:57:12.777Z,41.65
2019-05-13T08:59:43.391Z,41.23
2019-05-13T09:02:13.297Z,44.15
2019-05-13T09:04:44.955Z,41.33
2019-05-13T09:07:15.860Z,42.48
2019-05-13T09:09:45.275Z,41.29
2019-05-13T09:12:28.453Z,42.11
2019-05-13T09:14:52.217Z,44.38
2019-05-13T09:17:21.766Z,44.50
2019-05-13T09:19:52.198Z,43.74
2019-05-13T09:22:23.600Z,43.88
2019-05-13T09:24:56.117Z,41.28
2019-05-13T09:27:27.774Z,41.62
2019-05-13T09:29:56.579Z,42.34
2019-05-13T09:32:25.523Z,38.85
2019-05-13T09:34:56.183Z,40.10
2019-05-13T09:37:26.682Z,33.43
2019-05-13T09:39:57.505Z,28.18
2019-05-13T09:42:27.092Z,29.77
2019-05-13T09:44:57.594Z,31.06
2019-05-13T09:47:28.533Z,33.72
2019-05-13T09:49:59.034Z,31.35
2019-05-13T09:52:31.731Z,35.25
2019-05-13T09:55:03.158Z,36.69
2019-05-13T09:57:33.519Z,34.17
2019-05-13T10:00:03.882Z,33.58
2019-05-13T10:02:33.185Z,30.45
2019-05-13T10:05:03.860Z,28.41
2019-05-13T10:07:34.322Z,26.45
2019-05-13T10:10:06.700Z,23.94
2019-05-13T10:12:37.064Z,23.24
2019-05-13T10:15:09.521Z,23.25
2019-05-13T10:17:42.683Z,23.86
2019-05-13T10:20:12.814Z,23.76
2019-05-13T10:22:44.739Z,23.76
2019-05-13T10:25:18.406Z,22.92
2019-05-13T10:27:49.012Z,22.60
2019-05-13T10:30:21.766Z,22.60
2019-05-13T10:32:59.287Z,23.30
2019-05-13T10:35:27.422Z,23.61
2019-05-13T10:37:57.930Z,23.23
2019-05-13T10:40:32.850Z,21.57
2019-05-13T10:43:02.232Z,21.51
2019-05-13T10:45:34.684Z,21.00
2019-05-13T10:48:03.270Z,21.09
2019-05-13T10:50:33.614Z,20.51
2019-05-13T10:53:03.261Z,20.31
2019-05-13T10:55:33.588Z,21.64
2019-05-13T10:58:03.072Z,21.74
2019-05-13T11:00:49.107Z,21.69
2019-05-13T11:03:23.379Z,20.90
2019-05-13T11:05:53.803Z,20.31
2019-05-13T11:08:24.522Z,21.45
2019-05-13T11:10:56.687Z,20.62
2019-05-13T11:13:26.176Z,18.76
2019-05-13T11:15:58.154Z,19.60
2019-05-13T11:18:27.206Z,21.07
2019-05-13T11:20:56.699Z,22.34
2019-05-13T11:23:26.156Z,22.23
2019-05-13T11:25:55.533Z,21.80
2019-05-13T11:28:25.071Z,22.14
2019-05-13T11:30:59.583Z,23.23
2019-05-13T11:33:31.580Z,22.95
2019-05-13T11:36:02.956Z,22.31
2019-05-13T11:38:32.716Z,22.19
2019-05-13T11:41:02.898Z,20.81
2019-05-13T11:43:33.127Z,21.84
2019-05-13T11:46:05.064Z,22.28
2019-05-13T11:48:35.471Z,21.68
2019-05-13T11:51:05.912Z,21.65
2019-05-13T11:53:37.656Z,21.37
2019-05-13T11:56:08.392Z,20.73
2019-05-13T11:58:42.813Z,20.59
2019-05-13T12:01:11.288Z,20.67
2019-05-13T12:03:43.488Z,21.18
2019-05-13T12:06:16.722Z,20.58
2019-05-13T12:08:51.033Z,20.77
2019-05-13T12:11:18.251Z,20.49
2019-05-13T12:13:48.643Z,21.32
2019-05-13T12:16:18.049Z,21.16
2019-05-13T12:18:47.535Z,21.48
2019-05-13T12:21:16.946Z,21.62
2019-05-13T12:23:48.545Z,20.94
2019-05-13T12:26:19.001Z,21.26
2019-05-13T12:28:53.656Z,20.72
2019-05-13T12:31:22.642Z,20.02
2019-05-13T12:33:53.158Z,20.74
2019-05-13T12:36:24.332Z,21.33
2019-05-13T12:38:56.733Z,20.70
2019-05-13T12:41:26.077Z,20.45
2019-05-13T12:43:56.648Z,21.13
2019-05-13T12:46:26.048Z,20.63
2019-05-13T12:48:56.541Z,19.56
2019-05-13T12:51:26.190Z,19.72
2019-05-13T12:53:57.550Z,20.75
2019-05-13T12:56:26.904Z,21.67
2019-05-13T12:59:02.715Z,22.56
2019-05-13T13:01:33.241Z,22.10
2019-05-13T13:04:03.840Z,21.23
2019-05-13T13:06:40.652Z,21.01
2019-05-13T13:09:04.723Z,20.74
2019-05-13T13:11:34.256Z,21.72
2019-05-13T13:14:07.718Z,22.14
2019-05-13T13:16:37.332Z,22.62
2019-05-13T13:19:07.175Z,22.51
2019-05-13T13:21:37.706Z,21.75
2019-05-13T13:24:08.356Z,21.26
2019-05-13T13:26:37.843Z,21.07
2019-05-13T13:29:07.224Z,21.47
2019-05-13T13:31:37.900Z,22.79
2019-05-13T13:34:13.605Z,23.11
2019-05-13T13:36:45.276Z,22.86
2019-05-13T13:39:14.872Z,23.03
2019-05-13T13:41:44.902Z,22.13
2019-05-13T13:44:16.980Z,20.42
2019-05-13T13:46:49.511Z,20.57
2019-05-13T13:49:18.512Z,20.30
2019-05-13T13:51:48.910Z,20.24
2019-05-13T13:54:22.178Z,21.52
2019-05-13T13:56:55.814Z,21.81
2019-05-13T13:59:24.791Z,22.30
2019-05-13T14:01:56.659Z,22.46
2019-05-13T14:04:27.065Z,22.07
2019-05-13T14:09:29.754Z,21.07
2019-05-13T14:12:01.990Z,20.62
2019-05-13T14:14:31.997Z,20.61
2019-05-13T14:17:02.611Z,21.81
2019-05-13T14:19:32.463Z,22.86
2019-05-13T14:22:04.603Z,23.65
2019-05-13T14:24:34.008Z,23.58
2019-05-13T14:27:03.689Z,23.25
2019-05-13T14:29:40.723Z,22.65
2019-05-13T14:32:05.388Z,22.89
2019-05-13T14:34:34.881Z,22.89
2019-05-13T14:37:07.187Z,22.87
2019-05-13T14:39:37.560Z,22.21
2019-05-13T14:42:11.655Z,22.40
2019-05-13T14:44:44.331Z,22.30
2019-05-13T14:47:14.725Z,21.92
2019-05-13T14:49:46.852Z,21.56
2019-05-13T14:52:17.307Z,21.50
2019-05-13T14:54:47.813Z,21.75
2019-05-13T14:57:21.549Z,22.32
2019-05-13T14:59:51.624Z,22.47
2019-05-13T15:02:24.146Z,22.05
2019-05-13T15:04:53.987Z,21.46
2019-05-13T15:07:23.610Z,21.42
2019-05-13T15:09:53.005Z,21.31
2019-05-13T15:12:23.892Z,21.38
2019-05-13T15:14:54.413Z,21.25
2019-05-13T15:17:24.751Z,21.16
2019-05-13T15:19:55.107Z,20.59
2019-05-13T15:22:26.829Z,20.08
2019-05-13T15:24:57.275Z,20.18
2019-05-13T15:27:31.653Z,20.45
2019-05-13T15:30:14.526Z,20.39
2019-05-13T15:32:32.718Z,20.40
2019-05-13T15:35:04.272Z,20.45
2019-05-13T15:37:34.988Z,20.57
2019-05-13T15:40:06.406Z,20.39
2019-05-13T15:42:38.681Z,20.44
2019-05-13T15:45:08.886Z,20.73
2019-05-13T15:47:39.278Z,21.26
2019-05-13T15:50:08.941Z,21.07
2019-05-13T15:52:38.361Z,21.24
2019-05-13T15:55:11.456Z,21.95
2019-05-13T15:57:42.760Z,21.97
2019-05-13T16:00:15.803Z,21.76
2019-05-13T16:02:45.208Z,21.53
2019-05-13T16:05:14.639Z,21.30
2019-05-13T16:07:45.345Z,21.40
2019-05-13T16:10:18.258Z,21.39
2019-05-13T16:12:51.838Z,21.50
2019-05-13T16:15:24.606Z,21.68
2019-05-13T16:17:55.115Z,21.76
2019-05-13T16:20:24.621Z,21.62
2019-05-13T16:22:55.300Z,21.83
2019-05-13T16:25:24.678Z,21.25
2019-05-13T16:27:54.069Z,21.17
2019-05-13T16:30:27.495Z,21.13
2019-05-13T16:32:59.244Z,20.85
2019-05-13T16:35:28.891Z,20.79
2019-05-13T16:37:58.717Z,20.63
2019-05-13T16:40:33.655Z,20.54
2019-05-13T16:43:01.691Z,20.44
2019-05-13T16:45:32.208Z,20.67
2019-05-13T16:48:04.187Z,20.56
2019-05-13T16:50:33.730Z,20.15
2019-05-13T16:53:03.032Z,19.92
2019-05-13T16:55:33.824Z,19.59
2019-05-13T16:58:04.215Z,19.55
2019-05-13T17:00:34.725Z,19.50
2019-05-13T17:03:05.027Z,19.32
2019-05-13T17:05:34.490Z,19.30
2019-05-13T17:08:04.881Z,19.07
2019-05-13T17:10:35.469Z,18.97
2019-05-13T17:13:05.711Z,18.85
2019-05-13T17:15:37.055Z,19.17
2019-05-13T17:18:11.890Z,19.00
2019-05-13T17:20:41.446Z,18.94
2019-05-13T17:23:12.585Z,18.88
2019-05-13T17:25:43.937Z,19.13
2019-05-13T17:28:17.122Z,19.09
2019-05-13T17:30:47.538Z,18.82
2019-05-13T17:33:18.038Z,18.62
2019-05-13T17:35:48.662Z,18.32
2019-05-13T17:38:21.812Z,18.12
2019-05-13T17:40:53.048Z,17.98
2019-05-13T17:43:22.387Z,17.74
2019-05-13T17:45:52.887Z,17.77
2019-05-13T17:48:29.181Z,17.42
2019-05-13T17:50:57.671Z,17.47
2019-05-13T17:53:27.968Z,17.44
2019-05-13T17:55:57.342Z,17.21
2019-05-13T17:58:31.239Z,17.24
2019-05-13T18:01:01.670Z,17.14
2019-05-13T18:03:32.115Z,16.91
2019-05-13T18:06:02.454Z,16.76
2019-05-13T18:08:32.052Z,16.78
2019-05-13T18:11:02.607Z,16.83
2019-05-13T18:13:32.620Z,16.67
2019-05-13T18:16:02.720Z,16.63
2019-05-13T18:18:43.209Z,16.44
2019-05-13T18:21:04.982Z,16.39
2019-05-13T18:23:34.296Z,16.28
2019-05-13T18:26:05.242Z,16.20
2019-05-13T18:28:35.626Z,15.98
2019-05-13T18:31:07.915Z,16.10
2019-05-13T18:33:38.804Z,15.82
2019-05-13T18:36:11.833Z,15.73
2019-05-13T18:38:41.856Z,15.63
2019-05-13T18:41:12.038Z,15.57
2019-05-13T18:43:44.748Z,15.64
2019-05-13T18:46:14.002Z,15.62
2019-05-13T18:48:58.108Z,15.53
2019-05-13T18:51:15.453Z,15.46
2019-05-13T18:53:49.085Z,15.35
2019-05-13T18:56:18.486Z,15.38
2019-05-13T18:58:49.164Z,15.32
2019-05-13T19:01:21.675Z,15.28
2019-05-13T19:03:52.483Z,15.18
2019-05-13T19:06:22.453Z,15.11
2019-05-13T19:08:53.086Z,15.06
2019-05-13T19:11:24.446Z,14.91
2019-05-13T19:13:53.838Z,14.85
2019-05-13T19:16:24.199Z,14.80
2019-05-13T19:18:54.603Z,14.68
2019-05-13T19:21:25.009Z,14.55
2019-05-13T19:23:55.521Z,14.49
2019-05-13T19:26:25.926Z,14.35
2019-05-13T19:28:56.234Z,14.28
2019-05-13T19:31:28.617Z,14.33
2019-05-13T19:34:01.354Z,14.16
2019-05-13T19:36:29.696Z,14.14
2019-05-13T19:39:01.821Z,14.09
2019-05-13T19:41:32.536Z,14.05
2019-05-13T19:44:02.839Z,14.05
2019-05-13T19:46:33.564Z,14.09
2019-05-13T19:49:04.423Z,14.08
2019-05-13T19:51:38.438Z,14.13
2019-05-13T19:54:08.846Z,14.11
2019-05-13T19:56:38.315Z,14.00
2019-05-13T19:59:12.270Z,14.05
2019-05-13T20:01:42.482Z,13.90
2019-05-13T20:04:14.332Z,13.81
2019-05-13T20:06:45.997Z,13.79
2019-05-13T20:09:15.247Z,13.68
2019-05-13T20:11:45.723Z,13.63
2019-05-13T20:14:16.285Z,13.62
2019-05-13T20:16:46.679Z,13.47
2019-05-13T20:19:16.354Z,13.46
2019-05-13T20:21:46.931Z,13.42
2019-05-13T20:24:17.369Z,13.38
2019-05-13T20:26:52.016Z,13.39
2019-05-13T20:29:20.835Z,13.37
2019-05-13T20:31:51.866Z,13.29
2019-05-13T20:34:22.206Z,13.26
2019-05-13T20:36:53.787Z,13.18
2019-05-13T20:39:24.192Z,13.12
2019-05-13T20:41:55.827Z,13.05
2019-05-13T20:44:25.376Z,12.96
2019-05-13T20:46:57.100Z,12.95
2019-05-13T20:49:27.478Z,12.90
2019-05-13T20:51:57.913Z,12.76
2019-05-13T20:54:32.049Z,12.71
2019-05-13T20:57:02.120Z,12.76
2019-05-13T20:59:32.537Z,12.74
2019-05-13T21:02:06.714Z,12.76
2019-05-13T21:04:37.119Z,12.71
2019-05-13T21:07:08.297Z,12.58
2019-05-13T21:09:38.665Z,12.49
2019-05-13T21:12:09.074Z,12.45
2019-05-13T21:14:38.666Z,12.48
2019-05-13T21:17:12.313Z,12.46
2019-05-13T21:19:43.106Z,12.44
2019-05-13T21:22:13.719Z,12.40
2019-05-13T21:24:44.129Z,12.39
2019-05-13T21:27:14.750Z,12.36
2019-05-13T21:29:44.212Z,12.32
2019-05-13T21:32:17.527Z,12.29
2019-05-13T21:34:45.961Z,12.27
2019-05-13T21:37:15.377Z,12.28
2019-05-13T21:39:44.852Z,12.23
2019-05-13T21:42:16.862Z,12.24
2019-05-13T21:44:46.157Z,12.21
2019-05-13T21:47:15.594Z,12.16
2019-05-13T21:49:46.196Z,12.11
2019-05-13T21:52:16.705Z,12.07
2019-05-13T21:54:47.111Z,12.08
2019-05-13T21:57:17.418Z,12.07
2019-05-13T21:59:47.887Z,11.98
2019-05-13T22:02:18.226Z,11.93
2019-05-13T22:04:48.748Z,11.87
2019-05-13T22:07:18.326Z,11.84
2019-05-13T22:09:51.223Z,11.81
2019-05-13T22:12:21.698Z,11.77
2019-05-13T22:14:52.244Z,11.69
2019-05-13T22:17:21.608Z,11.64
2019-05-13T22:19:51.342Z,11.62
2019-05-13T22:22:22.184Z,11.57
2019-05-13T22:24:52.608Z,11.49
2019-05-13T22:27:23.007Z,11.47
2019-05-13T22:29:55.190Z,11.42
2019-05-13T22:32:24.610Z,11.35
2019-05-13T22:34:56.878Z,11.30
2019-05-13T22:37:26.202Z,11.27
2019-05-13T22:39:55.618Z,11.29
2019-05-13T22:42:28.161Z,11.22
2019-05-13T22:44:58.673Z,11.15
2019-05-13T22:47:28.148Z,11.09
2019-05-13T22:50:02.133Z,10.96
2019-05-13T22:52:31.892Z,10.99
2019-05-13T22:55:04.259Z,10.98
2019-05-13T22:57:34.682Z,11.01
2019-05-13T23:00:06.428Z,10.93
2019-05-13T23:02:36.834Z,10.92
2019-05-13T23:05:08.388Z,10.86
2019-05-13T23:07:38.802Z,10.69
2019-05-13T23:10:11.797Z,10.64
2019-05-13T23:12:42.185Z,10.54
2019-05-13T23:15:12.955Z,10.50
2019-05-13T23:17:43.447Z,10.48
2019-05-13T23:20:14.073Z,10.42
2019-05-13T23:22:44.466Z,10.40
2019-05-13T23:25:14.881Z,10.33
2019-05-13T23:27:46.707Z,10.37
2019-05-13T23:30:16.352Z,10.39
2019-05-13T23:32:46.823Z,10.36
2019-05-13T23:35:15.702Z,10.34
2019-05-13T23:37:45.037Z,10.32
2019-05-13T23:40:16.046Z,10.31
2019-05-13T23:42:45.418Z,10.32
2019-05-13T23:45:16.026Z,10.32
2019-05-13T23:47:45.534Z,10.26
2019-05-13T23:50:14.262Z,10.16
2019-05-13T23:52:44.841Z,10.11
2019-05-13T23:55:15.349Z,10.06
2019-05-13T23:57:47.113Z,10.07
